sensor_id;sensor_type;location;lat;lon;timestamp;P1;durP1;ratioP1;P2;durP2;ratioP2
16314;SDS011;8266;52.150;4.768;2023-04-16T00:02:14;6.13;;;2.42;;
16314;SDS011;8266;52.150;4.768;2023-04-16T00:04:41;5.20;;;2.03;;
16314;SDS011;8266;52.150;4.768;2023-04-16T00:07:10;7.22;;;2.78;;
16314;SDS011;8266;52.150;4.768;2023-04-16T00:09:36;6.63;;;2.42;;
16314;SDS011;8266;52.150;4.768;2023-04-16T00:12:03;5.85;;;2.40;;
16314;SDS011;8266;52.150;4.768;2023-04-16T00:14:31;7.57;;;2.58;;
16314;SDS011;8266;52.150;4.768;2023-04-16T00:16:58;6.13;;;2.15;;
16314;SDS011;8266;52.150;4.768;2023-04-16T00:19:25;7.35;;;2.38;;
16314;SDS011;8266;52.150;4.768;2023-04-16T00:21:52;5.45;;;1.88;;
16314;SDS011;8266;52.150;4.768;2023-04-16T00:24:20;7.50;;;2.60;;
16314;SDS011;8266;52.150;4.768;2023-04-16T00:26:47;6.47;;;2.13;;
16314;SDS011;8266;52.150;4.768;2023-04-16T00:29:14;7.43;;;2.22;;
16314;SDS011;8266;52.150;4.768;2023-04-16T00:31:41;3.75;;;2.05;;
16314;SDS011;8266;52.150;4.768;2023-04-16T00:34:08;8.75;;;2.65;;
16314;SDS011;8266;52.150;4.768;2023-04-16T00:36:35;5.40;;;2.03;;
16314;SDS011;8266;52.150;4.768;2023-04-16T00:39:02;7.70;;;2.60;;
16314;SDS011;8266;52.150;4.768;2023-04-16T00:41:30;5.57;;;1.85;;
16314;SDS011;8266;52.150;4.768;2023-04-16T00:43:57;6.22;;;1.92;;
16314;SDS011;8266;52.150;4.768;2023-04-16T00:46:24;6.53;;;1.95;;
16314;SDS011;8266;52.150;4.768;2023-04-16T00:48:52;5.05;;;1.73;;
16314;SDS011;8266;52.150;4.768;2023-04-16T00:51:19;6.53;;;2.55;;
16314;SDS011;8266;52.150;4.768;2023-04-16T00:53:47;4.18;;;1.77;;
16314;SDS011;8266;52.150;4.768;2023-04-16T00:56:14;4.82;;;1.83;;
16314;SDS011;8266;52.150;4.768;2023-04-16T00:58:43;6.32;;;1.70;;
16314;SDS011;8266;52.150;4.768;2023-04-16T01:01:10;5.85;;;1.58;;
16314;SDS011;8266;52.150;4.768;2023-04-16T01:03:39;5.53;;;1.60;;
16314;SDS011;8266;52.150;4.768;2023-04-16T01:06:09;4.53;;;2.03;;
16314;SDS011;8266;52.150;4.768;2023-04-16T01:08:37;6.55;;;1.83;;
16314;SDS011;8266;52.150;4.768;2023-04-16T01:11:04;6.22;;;1.70;;
16314;SDS011;8266;52.150;4.768;2023-04-16T01:13:31;7.05;;;1.95;;
16314;SDS011;8266;52.150;4.768;2023-04-16T01:16:00;6.50;;;2.33;;
16314;SDS011;8266;52.150;4.768;2023-04-16T01:18:27;5.45;;;2.25;;
16314;SDS011;8266;52.150;4.768;2023-04-16T01:20:56;6.47;;;2.38;;
16314;SDS011;8266;52.150;4.768;2023-04-16T01:23:22;6.72;;;2.17;;
16314;SDS011;8266;52.150;4.768;2023-04-16T01:25:50;5.93;;;1.92;;
16314;SDS011;8266;52.150;4.768;2023-04-16T01:28:16;5.03;;;2.53;;
16314;SDS011;8266;52.150;4.768;2023-04-16T01:30:43;8.55;;;2.63;;
16314;SDS011;8266;52.150;4.768;2023-04-16T01:33:11;8.50;;;2.35;;
16314;SDS011;8266;52.150;4.768;2023-04-16T01:35:38;6.30;;;2.53;;
16314;SDS011;8266;52.150;4.768;2023-04-16T01:38:07;6.28;;;2.20;;
16314;SDS011;8266;52.150;4.768;2023-04-16T01:40:35;10.00;;;2.92;;
16314;SDS011;8266;52.150;4.768;2023-04-16T01:43:03;5.38;;;2.47;;
16314;SDS011;8266;52.150;4.768;2023-04-16T01:45:30;7.72;;;2.88;;
16314;SDS011;8266;52.150;4.768;2023-04-16T01:48:00;9.30;;;3.30;;
16314;SDS011;8266;52.150;4.768;2023-04-16T01:50:27;4.80;;;2.72;;
16314;SDS011;8266;52.150;4.768;2023-04-16T01:52:55;7.05;;;3.00;;
16314;SDS011;8266;52.150;4.768;2023-04-16T01:55:24;6.55;;;2.97;;
16314;SDS011;8266;52.150;4.768;2023-04-16T01:57:51;13.00;;;3.75;;
16314;SDS011;8266;52.150;4.768;2023-04-16T02:00:18;7.82;;;3.13;;
16314;SDS011;8266;52.150;4.768;2023-04-16T02:02:45;6.90;;;3.35;;
16314;SDS011;8266;52.150;4.768;2023-04-16T02:05:13;10.90;;;3.95;;
16314;SDS011;8266;52.150;4.768;2023-04-16T02:07:40;9.40;;;3.60;;
16314;SDS011;8266;52.150;4.768;2023-04-16T02:10:07;11.48;;;3.60;;
16314;SDS011;8266;52.150;4.768;2023-04-16T02:12:36;6.47;;;2.95;;
16314;SDS011;8266;52.150;4.768;2023-04-16T02:15:04;9.30;;;3.38;;
16314;SDS011;8266;52.150;4.768;2023-04-16T02:17:31;7.88;;;2.92;;
16314;SDS011;8266;52.150;4.768;2023-04-16T02:19:58;8.80;;;3.25;;
16314;SDS011;8266;52.150;4.768;2023-04-16T02:22:27;6.07;;;3.22;;
16314;SDS011;8266;52.150;4.768;2023-04-16T02:24:54;5.38;;;2.50;;
16314;SDS011;8266;52.150;4.768;2023-04-16T02:27:21;9.00;;;3.20;;
16314;SDS011;8266;52.150;4.768;2023-04-16T02:29:49;5.18;;;2.85;;
16314;SDS011;8266;52.150;4.768;2023-04-16T02:32:16;9.65;;;2.72;;
16314;SDS011;8266;52.150;4.768;2023-04-16T02:34:43;5.97;;;2.45;;
16314;SDS011;8266;52.150;4.768;2023-04-16T02:37:10;7.65;;;2.53;;
16314;SDS011;8266;52.150;4.768;2023-04-16T02:39:39;9.43;;;2.80;;
16314;SDS011;8266;52.150;4.768;2023-04-16T02:42:07;5.18;;;2.72;;
16314;SDS011;8266;52.150;4.768;2023-04-16T02:44:34;4.35;;;2.30;;
16314;SDS011;8266;52.150;4.768;2023-04-16T02:47:02;8.35;;;2.70;;
16314;SDS011;8266;52.150;4.768;2023-04-16T02:49:29;6.95;;;3.00;;
16314;SDS011;8266;52.150;4.768;2023-04-16T02:51:56;5.57;;;2.47;;
16314;SDS011;8266;52.150;4.768;2023-04-16T02:54:23;8.10;;;2.88;;
16314;SDS011;8266;52.150;4.768;2023-04-16T02:56:50;4.95;;;3.20;;
16314;SDS011;8266;52.150;4.768;2023-04-16T02:59:17;10.98;;;4.40;;
16314;SDS011;8266;52.150;4.768;2023-04-16T03:01:43;8.82;;;4.40;;
16314;SDS011;8266;52.150;4.768;2023-04-16T03:04:12;8.27;;;3.70;;
16314;SDS011;8266;52.150;4.768;2023-04-16T03:06:39;10.25;;;4.13;;
16314;SDS011;8266;52.150;4.768;2023-04-16T03:09:06;9.25;;;3.28;;
16314;SDS011;8266;52.150;4.768;2023-04-16T03:11:33;10.90;;;3.70;;
16314;SDS011;8266;52.150;4.768;2023-04-16T03:14:00;8.82;;;2.92;;
16314;SDS011;8266;52.150;4.768;2023-04-16T03:16:27;4.75;;;2.63;;
16314;SDS011;8266;52.150;4.768;2023-04-16T03:18:54;8.75;;;3.10;;
16314;SDS011;8266;52.150;4.768;2023-04-16T03:21:23;6.57;;;2.55;;
16314;SDS011;8266;52.150;4.768;2023-04-16T03:23:51;7.88;;;3.15;;
16314;SDS011;8266;52.150;4.768;2023-04-16T03:26:20;11.13;;;2.95;;
16314;SDS011;8266;52.150;4.768;2023-04-16T03:28:47;7.15;;;2.72;;
16314;SDS011;8266;52.150;4.768;2023-04-16T03:31:14;6.68;;;3.15;;
16314;SDS011;8266;52.150;4.768;2023-04-16T03:33:41;4.47;;;2.42;;
16314;SDS011;8266;52.150;4.768;2023-04-16T03:36:08;11.60;;;3.75;;
16314;SDS011;8266;52.150;4.768;2023-04-16T03:38:36;5.85;;;3.03;;
16314;SDS011;8266;52.150;4.768;2023-04-16T03:41:03;10.90;;;3.30;;
16314;SDS011;8266;52.150;4.768;2023-04-16T03:43:30;8.05;;;3.10;;
16314;SDS011;8266;52.150;4.768;2023-04-16T03:45:57;6.28;;;2.83;;
16314;SDS011;8266;52.150;4.768;2023-04-16T03:48:24;5.47;;;2.17;;
16314;SDS011;8266;52.150;4.768;2023-04-16T03:50:51;6.97;;;2.53;;
16314;SDS011;8266;52.150;4.768;2023-04-16T03:53:18;4.07;;;1.90;;
16314;SDS011;8266;52.150;4.768;2023-04-16T03:55:48;6.82;;;2.53;;
16314;SDS011;8266;52.150;4.768;2023-04-16T03:58:16;7.28;;;2.75;;
16314;SDS011;8266;52.150;4.768;2023-04-16T04:00:43;9.10;;;2.40;;
16314;SDS011;8266;52.150;4.768;2023-04-16T04:03:11;8.23;;;2.28;;
16314;SDS011;8266;52.150;4.768;2023-04-16T04:05:41;9.95;;;2.88;;
16314;SDS011;8266;52.150;4.768;2023-04-16T04:08:08;8.52;;;2.50;;
16314;SDS011;8266;52.150;4.768;2023-04-16T04:10:36;8.43;;;2.25;;
16314;SDS011;8266;52.150;4.768;2023-04-16T04:13:04;6.03;;;2.95;;
16314;SDS011;8266;52.150;4.768;2023-04-16T04:15:32;7.85;;;3.38;;
16314;SDS011;8266;52.150;4.768;2023-04-16T04:17:59;6.68;;;3.40;;
16314;SDS011;8266;52.150;4.768;2023-04-16T04:20:25;6.07;;;3.15;;
16314;SDS011;8266;52.150;4.768;2023-04-16T04:22:52;5.82;;;2.72;;
16314;SDS011;8266;52.150;4.768;2023-04-16T04:25:20;7.22;;;3.50;;
16314;SDS011;8266;52.150;4.768;2023-04-16T04:27:47;6.00;;;2.38;;
16314;SDS011;8266;52.150;4.768;2023-04-16T04:30:15;8.25;;;3.67;;
16314;SDS011;8266;52.150;4.768;2023-04-16T04:32:42;7.90;;;3.65;;
16314;SDS011;8266;52.150;4.768;2023-04-16T04:35:10;10.15;;;4.47;;
16314;SDS011;8266;52.150;4.768;2023-04-16T04:37:37;8.13;;;4.32;;
16314;SDS011;8266;52.150;4.768;2023-04-16T04:40:04;8.43;;;4.05;;
16314;SDS011;8266;52.150;4.768;2023-04-16T04:42:32;8.73;;;4.30;;
16314;SDS011;8266;52.150;4.768;2023-04-16T04:44:59;10.38;;;4.57;;
16314;SDS011;8266;52.150;4.768;2023-04-16T04:47:27;10.38;;;4.65;;
16314;SDS011;8266;52.150;4.768;2023-04-16T04:49:54;11.20;;;3.83;;
16314;SDS011;8266;52.150;4.768;2023-04-16T04:52:21;9.05;;;4.05;;
16314;SDS011;8266;52.150;4.768;2023-04-16T04:54:48;8.50;;;4.40;;
16314;SDS011;8266;52.150;4.768;2023-04-16T04:57:15;7.75;;;4.80;;
16314;SDS011;8266;52.150;4.768;2023-04-16T04:59:42;10.98;;;4.47;;
16314;SDS011;8266;52.150;4.768;2023-04-16T05:02:09;6.30;;;3.88;;
16314;SDS011;8266;52.150;4.768;2023-04-16T05:04:38;8.90;;;4.35;;
16314;SDS011;8266;52.150;4.768;2023-04-16T05:07:05;13.23;;;4.28;;
16314;SDS011;8266;52.150;4.768;2023-04-16T05:09:32;11.18;;;3.92;;
16314;SDS011;8266;52.150;4.768;2023-04-16T05:11:59;13.75;;;4.30;;
16314;SDS011;8266;52.150;4.768;2023-04-16T05:14:26;11.15;;;4.05;;
16314;SDS011;8266;52.150;4.768;2023-04-16T05:16:53;11.65;;;4.25;;
16314;SDS011;8266;52.150;4.768;2023-04-16T05:19:20;10.00;;;3.50;;
16314;SDS011;8266;52.150;4.768;2023-04-16T05:21:48;10.75;;;5.03;;
16314;SDS011;8266;52.150;4.768;2023-04-16T05:24:15;7.38;;;3.92;;
16314;SDS011;8266;52.150;4.768;2023-04-16T05:26:42;8.48;;;4.20;;
16314;SDS011;8266;52.150;4.768;2023-04-16T05:29:09;8.07;;;3.50;;
16314;SDS011;8266;52.150;4.768;2023-04-16T05:31:36;12.07;;;4.65;;
16314;SDS011;8266;52.150;4.768;2023-04-16T05:34:04;15.52;;;3.95;;
16314;SDS011;8266;52.150;4.768;2023-04-16T05:36:31;14.27;;;5.25;;
16314;SDS011;8266;52.150;4.768;2023-04-16T05:38:59;8.73;;;4.30;;
16314;SDS011;8266;52.150;4.768;2023-04-16T05:41:26;6.10;;;3.67;;
16314;SDS011;8266;52.150;4.768;2023-04-16T05:43:53;9.27;;;3.88;;
16314;SDS011;8266;52.150;4.768;2023-04-16T05:46:20;9.80;;;4.50;;
16314;SDS011;8266;52.150;4.768;2023-04-16T05:48:47;12.00;;;5.05;;
16314;SDS011;8266;52.150;4.768;2023-04-16T05:51:14;10.95;;;4.85;;
16314;SDS011;8266;52.150;4.768;2023-04-16T05:53:41;10.35;;;4.40;;
16314;SDS011;8266;52.150;4.768;2023-04-16T05:56:09;10.88;;;4.90;;
16314;SDS011;8266;52.150;4.768;2023-04-16T05:58:36;9.77;;;4.45;;
16314;SDS011;8266;52.150;4.768;2023-04-16T06:01:03;7.43;;;4.10;;
16314;SDS011;8266;52.150;4.768;2023-04-16T06:03:31;11.77;;;5.30;;
16314;SDS011;8266;52.150;4.768;2023-04-16T06:05:58;14.05;;;4.80;;
16314;SDS011;8266;52.150;4.768;2023-04-16T06:08:25;9.40;;;4.85;;
16314;SDS011;8266;52.150;4.768;2023-04-16T06:10:52;9.48;;;4.50;;
16314;SDS011;8266;52.150;4.768;2023-04-16T06:13:21;11.70;;;5.13;;
16314;SDS011;8266;52.150;4.768;2023-04-16T06:15:47;9.43;;;4.60;;
16314;SDS011;8266;52.150;4.768;2023-04-16T06:18:14;11.05;;;4.95;;
16314;SDS011;8266;52.150;4.768;2023-04-16T06:20:41;11.27;;;4.60;;
16314;SDS011;8266;52.150;4.768;2023-04-16T06:23:08;10.13;;;4.95;;
16314;SDS011;8266;52.150;4.768;2023-04-16T06:25:35;13.23;;;5.65;;
16314;SDS011;8266;52.150;4.768;2023-04-16T06:28:02;8.75;;;4.80;;
16314;SDS011;8266;52.150;4.768;2023-04-16T06:30:31;12.70;;;4.97;;
16314;SDS011;8266;52.150;4.768;2023-04-16T06:32:58;10.90;;;5.47;;
16314;SDS011;8266;52.150;4.768;2023-04-16T06:35:25;10.55;;;5.65;;
16314;SDS011;8266;52.150;4.768;2023-04-16T06:37:52;10.27;;;5.18;;
16314;SDS011;8266;52.150;4.768;2023-04-16T06:40:19;18.95;;;5.53;;
16314;SDS011;8266;52.150;4.768;2023-04-16T06:42:46;10.40;;;5.32;;
16314;SDS011;8266;52.150;4.768;2023-04-16T06:45:13;12.48;;;6.15;;
16314;SDS011;8266;52.150;4.768;2023-04-16T06:47:42;10.85;;;5.82;;
16314;SDS011;8266;52.150;4.768;2023-04-16T06:50:09;10.27;;;6.05;;
16314;SDS011;8266;52.150;4.768;2023-04-16T06:52:36;11.98;;;5.80;;
16314;SDS011;8266;52.150;4.768;2023-04-16T06:55:03;9.68;;;5.93;;
16314;SDS011;8266;52.150;4.768;2023-04-16T06:57:32;10.80;;;5.47;;
16314;SDS011;8266;52.150;4.768;2023-04-16T06:59:59;14.10;;;6.75;;
16314;SDS011;8266;52.150;4.768;2023-04-16T07:02:26;14.55;;;6.22;;
16314;SDS011;8266;52.150;4.768;2023-04-16T07:04:54;11.13;;;6.25;;
16314;SDS011;8266;52.150;4.768;2023-04-16T07:07:23;7.03;;;5.43;;
16314;SDS011;8266;52.150;4.768;2023-04-16T07:09:51;10.65;;;5.53;;
16314;SDS011;8266;52.150;4.768;2023-04-16T07:12:18;11.88;;;5.82;;
16314;SDS011;8266;52.150;4.768;2023-04-16T07:14:45;10.65;;;6.22;;
16314;SDS011;8266;52.150;4.768;2023-04-16T07:17:12;11.68;;;5.88;;
16314;SDS011;8266;52.150;4.768;2023-04-16T07:19:40;16.25;;;5.82;;
16314;SDS011;8266;52.150;4.768;2023-04-16T07:22:08;12.27;;;5.43;;
16314;SDS011;8266;52.150;4.768;2023-04-16T07:24:35;11.90;;;6.13;;
16314;SDS011;8266;52.150;4.768;2023-04-16T07:27:02;12.07;;;6.20;;
16314;SDS011;8266;52.150;4.768;2023-04-16T07:29:29;10.93;;;5.20;;
16314;SDS011;8266;52.150;4.768;2023-04-16T07:31:56;9.73;;;5.57;;
16314;SDS011;8266;52.150;4.768;2023-04-16T07:34:23;14.77;;;7.05;;
16314;SDS011;8266;52.150;4.768;2023-04-16T07:36:50;13.75;;;6.07;;
16314;SDS011;8266;52.150;4.768;2023-04-16T07:39:19;14.93;;;5.53;;
16314;SDS011;8266;52.150;4.768;2023-04-16T07:41:46;14.00;;;5.82;;
16314;SDS011;8266;52.150;4.768;2023-04-16T07:44:13;16.88;;;6.38;;
16314;SDS011;8266;52.150;4.768;2023-04-16T07:46:40;11.60;;;6.30;;
16314;SDS011;8266;52.150;4.768;2023-04-16T07:49:07;11.80;;;6.28;;
16314;SDS011;8266;52.150;4.768;2023-04-16T07:51:40;11.40;;;6.55;;
16314;SDS011;8266;52.150;4.768;2023-04-16T07:54:07;12.00;;;5.82;;
16314;SDS011;8266;52.150;4.768;2023-04-16T07:56:38;10.70;;;6.35;;
16314;SDS011;8266;52.150;4.768;2023-04-16T07:59:05;14.68;;;6.65;;
16314;SDS011;8266;52.150;4.768;2023-04-16T08:01:32;13.13;;;6.90;;
16314;SDS011;8266;52.150;4.768;2023-04-16T08:03:59;13.32;;;6.60;;
16314;SDS011;8266;52.150;4.768;2023-04-16T08:06:26;13.30;;;6.35;;
16314;SDS011;8266;52.150;4.768;2023-04-16T08:08:53;14.80;;;6.68;;
16314;SDS011;8266;52.150;4.768;2023-04-16T08:11:21;13.52;;;6.70;;
16314;SDS011;8266;52.150;4.768;2023-04-16T08:13:50;12.23;;;6.82;;
16314;SDS011;8266;52.150;4.768;2023-04-16T08:16:17;9.50;;;6.10;;
16314;SDS011;8266;52.150;4.768;2023-04-16T08:18:44;11.82;;;5.80;;
16314;SDS011;8266;52.150;4.768;2023-04-16T08:21:11;10.45;;;5.80;;
16314;SDS011;8266;52.150;4.768;2023-04-16T08:23:38;13.02;;;5.50;;
16314;SDS011;8266;52.150;4.768;2023-04-16T08:26:05;10.75;;;5.65;;
16314;SDS011;8266;52.150;4.768;2023-04-16T08:28:32;9.68;;;6.22;;
16314;SDS011;8266;52.150;4.768;2023-04-16T08:31:00;10.88;;;5.90;;
16314;SDS011;8266;52.150;4.768;2023-04-16T08:33:27;13.23;;;5.88;;
16314;SDS011;8266;52.150;4.768;2023-04-16T08:35:54;10.20;;;5.50;;
16314;SDS011;8266;52.150;4.768;2023-04-16T08:38:21;10.60;;;5.80;;
16314;SDS011;8266;52.150;4.768;2023-04-16T08:40:49;7.15;;;5.50;;
16314;SDS011;8266;52.150;4.768;2023-04-16T08:43:16;10.07;;;5.95;;
16314;SDS011;8266;52.150;4.768;2023-04-16T08:45:46;8.20;;;5.18;;
16314;SDS011;8266;52.150;4.768;2023-04-16T08:48:15;8.38;;;6.00;;
16314;SDS011;8266;52.150;4.768;2023-04-16T08:50:44;10.35;;;6.30;;
16314;SDS011;8266;52.150;4.768;2023-04-16T08:53:15;8.50;;;6.00;;
16314;SDS011;8266;52.150;4.768;2023-04-16T08:55:47;11.15;;;6.13;;
16314;SDS011;8266;52.150;4.768;2023-04-16T08:58:17;11.32;;;6.13;;
16314;SDS011;8266;52.150;4.768;2023-04-16T09:00:45;14.15;;;6.35;;
16314;SDS011;8266;52.150;4.768;2023-04-16T09:03:13;8.98;;;5.80;;
16314;SDS011;8266;52.150;4.768;2023-04-16T09:05:43;10.40;;;6.63;;
16314;SDS011;8266;52.150;4.768;2023-04-16T09:08:11;9.73;;;6.68;;
16314;SDS011;8266;52.150;4.768;2023-04-16T09:10:38;9.65;;;5.93;;
16314;SDS011;8266;52.150;4.768;2023-04-16T09:13:05;12.20;;;6.82;;
16314;SDS011;8266;52.150;4.768;2023-04-16T09:15:33;10.20;;;7.30;;
16314;SDS011;8266;52.150;4.768;2023-04-16T09:18:01;11.07;;;6.70;;
16314;SDS011;8266;52.150;4.768;2023-04-16T09:20:29;15.10;;;7.40;;
16314;SDS011;8266;52.150;4.768;2023-04-16T09:22:56;10.02;;;5.63;;
16314;SDS011;8266;52.150;4.768;2023-04-16T09:25:23;12.07;;;7.20;;
16314;SDS011;8266;52.150;4.768;2023-04-16T09:27:50;10.18;;;5.95;;
16314;SDS011;8266;52.150;4.768;2023-04-16T09:30:18;9.90;;;6.45;;
16314;SDS011;8266;52.150;4.768;2023-04-16T09:32:47;11.88;;;6.68;;
16314;SDS011;8266;52.150;4.768;2023-04-16T09:35:14;10.48;;;6.55;;
16314;SDS011;8266;52.150;4.768;2023-04-16T09:37:46;9.88;;;6.90;;
16314;SDS011;8266;52.150;4.768;2023-04-16T09:40:22;9.38;;;6.45;;
16314;SDS011;8266;52.150;4.768;2023-04-16T09:42:50;13.18;;;7.22;;
16314;SDS011;8266;52.150;4.768;2023-04-16T09:45:18;11.90;;;7.03;;
16314;SDS011;8266;52.150;4.768;2023-04-16T09:47:45;13.93;;;6.95;;
16314;SDS011;8266;52.150;4.768;2023-04-16T09:50:13;11.55;;;6.40;;
16314;SDS011;8266;52.150;4.768;2023-04-16T09:52:42;11.02;;;6.53;;
16314;SDS011;8266;52.150;4.768;2023-04-16T09:55:11;9.25;;;7.10;;
16314;SDS011;8266;52.150;4.768;2023-04-16T09:57:38;10.77;;;7.03;;
16314;SDS011;8266;52.150;4.768;2023-04-16T10:00:05;11.70;;;6.80;;
16314;SDS011;8266;52.150;4.768;2023-04-16T10:02:34;9.82;;;6.53;;
16314;SDS011;8266;52.150;4.768;2023-04-16T10:05:05;11.77;;;6.57;;
16314;SDS011;8266;52.150;4.768;2023-04-16T10:07:33;8.73;;;6.80;;
16314;SDS011;8266;52.150;4.768;2023-04-16T10:10:01;8.90;;;6.43;;
16314;SDS011;8266;52.150;4.768;2023-04-16T10:12:30;10.13;;;6.75;;
16314;SDS011;8266;52.150;4.768;2023-04-16T10:14:57;11.73;;;7.30;;
16314;SDS011;8266;52.150;4.768;2023-04-16T10:17:25;11.27;;;6.75;;
16314;SDS011;8266;52.150;4.768;2023-04-16T10:19:54;12.35;;;7.03;;
16314;SDS011;8266;52.150;4.768;2023-04-16T10:22:22;12.65;;;6.47;;
16314;SDS011;8266;52.150;4.768;2023-04-16T10:24:49;9.93;;;6.43;;
16314;SDS011;8266;52.150;4.768;2023-04-16T10:27:17;12.40;;;6.82;;
16314;SDS011;8266;52.150;4.768;2023-04-16T10:29:47;12.75;;;6.70;;
16314;SDS011;8266;52.150;4.768;2023-04-16T10:32:15;9.68;;;6.95;;
16314;SDS011;8266;52.150;4.768;2023-04-16T10:34:44;9.90;;;6.78;;
16314;SDS011;8266;52.150;4.768;2023-04-16T10:37:13;15.40;;;6.65;;
16314;SDS011;8266;52.150;4.768;2023-04-16T10:39:42;8.38;;;5.82;;
16314;SDS011;8266;52.150;4.768;2023-04-16T10:42:10;13.52;;;6.40;;
16314;SDS011;8266;52.150;4.768;2023-04-16T10:44:38;10.70;;;7.15;;
16314;SDS011;8266;52.150;4.768;2023-04-16T10:47:10;11.00;;;5.93;;
16314;SDS011;8266;52.150;4.768;2023-04-16T10:49:38;9.57;;;6.00;;
16314;SDS011;8266;52.150;4.768;2023-04-16T10:52:09;12.77;;;7.10;;
16314;SDS011;8266;52.150;4.768;2023-04-16T10:54:37;11.00;;;7.00;;
16314;SDS011;8266;52.150;4.768;2023-04-16T10:57:05;9.93;;;6.85;;
16314;SDS011;8266;52.150;4.768;2023-04-16T10:59:41;9.15;;;6.63;;
16314;SDS011;8266;52.150;4.768;2023-04-16T11:02:12;10.07;;;6.88;;
16314;SDS011;8266;52.150;4.768;2023-04-16T11:04:41;12.00;;;7.10;;
16314;SDS011;8266;52.150;4.768;2023-04-16T11:07:16;11.15;;;6.25;;
16314;SDS011;8266;52.150;4.768;2023-04-16T11:09:45;10.32;;;6.65;;
16314;SDS011;8266;52.150;4.768;2023-04-16T11:12:18;8.35;;;5.82;;
16314;SDS011;8266;52.150;4.768;2023-04-16T11:14:46;8.80;;;6.43;;
16314;SDS011;8266;52.150;4.768;2023-04-16T11:17:16;9.70;;;6.28;;
16314;SDS011;8266;52.150;4.768;2023-04-16T11:19:44;8.77;;;6.28;;
16314;SDS011;8266;52.150;4.768;2023-04-16T11:22:11;10.23;;;7.38;;
16314;SDS011;8266;52.150;4.768;2023-04-16T11:24:41;9.82;;;7.88;;
16314;SDS011;8266;52.150;4.768;2023-04-16T11:27:10;13.50;;;7.53;;
16314;SDS011;8266;52.150;4.768;2023-04-16T11:29:37;12.40;;;8.07;;
16314;SDS011;8266;52.150;4.768;2023-04-16T11:32:05;10.75;;;7.25;;
16314;SDS011;8266;52.150;4.768;2023-04-16T11:34:34;8.65;;;6.80;;
16314;SDS011;8266;52.150;4.768;2023-04-16T11:37:08;9.18;;;6.45;;
16314;SDS011;8266;52.150;4.768;2023-04-16T11:39:46;10.23;;;6.78;;
16314;SDS011;8266;52.150;4.768;2023-04-16T11:42:17;9.80;;;5.72;;
16314;SDS011;8266;52.150;4.768;2023-04-16T11:44:46;7.22;;;6.30;;
16314;SDS011;8266;52.150;4.768;2023-04-16T11:47:18;12.00;;;6.47;;
16314;SDS011;8266;52.150;4.768;2023-04-16T11:49:46;8.57;;;6.00;;
16314;SDS011;8266;52.150;4.768;2023-04-16T11:52:14;11.90;;;6.18;;
16314;SDS011;8266;52.150;4.768;2023-04-16T11:54:51;11.15;;;6.78;;
16314;SDS011;8266;52.150;4.768;2023-04-16T11:57:22;8.57;;;6.07;;
16314;SDS011;8266;52.150;4.768;2023-04-16T11:59:50;11.40;;;6.25;;
16314;SDS011;8266;52.150;4.768;2023-04-16T12:02:32;8.80;;;6.00;;
16314;SDS011;8266;52.150;4.768;2023-04-16T12:05:03;10.60;;;6.45;;
16314;SDS011;8266;52.150;4.768;2023-04-16T12:07:30;14.32;;;7.22;;
16314;SDS011;8266;52.150;4.768;2023-04-16T12:10:04;11.60;;;6.68;;
16314;SDS011;8266;52.150;4.768;2023-04-16T12:12:32;10.85;;;6.68;;
16314;SDS011;8266;52.150;4.768;2023-04-16T12:14:59;9.57;;;6.72;;
16314;SDS011;8266;52.150;4.768;2023-04-16T12:17:28;9.70;;;6.53;;
16314;SDS011;8266;52.150;4.768;2023-04-16T12:19:56;8.88;;;5.88;;
16314;SDS011;8266;52.150;4.768;2023-04-16T12:22:29;10.70;;;6.38;;
16314;SDS011;8266;52.150;4.768;2023-04-16T12:24:58;11.50;;;5.93;;
16314;SDS011;8266;52.150;4.768;2023-04-16T12:27:39;9.40;;;6.25;;
16314;SDS011;8266;52.150;4.768;2023-04-16T12:30:07;10.25;;;6.45;;
16314;SDS011;8266;52.150;4.768;2023-04-16T12:32:35;12.43;;;6.43;;
16314;SDS011;8266;52.150;4.768;2023-04-16T12:35:02;10.65;;;6.20;;
16314;SDS011;8266;52.150;4.768;2023-04-16T12:37:30;11.68;;;6.55;;
16314;SDS011;8266;52.150;4.768;2023-04-16T12:39:57;16.10;;;7.65;;
16314;SDS011;8266;52.150;4.768;2023-04-16T12:42:24;15.70;;;7.53;;
16314;SDS011;8266;52.150;4.768;2023-04-16T12:44:51;12.85;;;6.30;;
16314;SDS011;8266;52.150;4.768;2023-04-16T12:47:18;11.68;;;7.25;;
16314;SDS011;8266;52.150;4.768;2023-04-16T12:49:45;10.85;;;7.35;;
16314;SDS011;8266;52.150;4.768;2023-04-16T12:52:12;12.02;;;7.38;;
16314;SDS011;8266;52.150;4.768;2023-04-16T12:54:41;11.38;;;6.90;;
16314;SDS011;8266;52.150;4.768;2023-04-16T12:57:08;12.13;;;6.82;;
16314;SDS011;8266;52.150;4.768;2023-04-16T12:59:35;8.95;;;6.57;;
16314;SDS011;8266;52.150;4.768;2023-04-16T13:02:02;12.80;;;7.03;;
16314;SDS011;8266;52.150;4.768;2023-04-16T13:04:30;12.88;;;7.30;;
16314;SDS011;8266;52.150;4.768;2023-04-16T13:06:56;10.43;;;7.10;;
16314;SDS011;8266;52.150;4.768;2023-04-16T13:09:24;13.55;;;7.47;;
16314;SDS011;8266;52.150;4.768;2023-04-16T13:11:52;13.40;;;7.20;;
16314;SDS011;8266;52.150;4.768;2023-04-16T13:14:19;11.27;;;6.95;;
16314;SDS011;8266;52.150;4.768;2023-04-16T13:16:46;10.75;;;6.80;;
16314;SDS011;8266;52.150;4.768;2023-04-16T13:19:13;9.93;;;6.28;;
16314;SDS011;8266;52.150;4.768;2023-04-16T13:21:43;11.07;;;7.25;;
16314;SDS011;8266;52.150;4.768;2023-04-16T13:24:10;10.30;;;7.03;;
16314;SDS011;8266;52.150;4.768;2023-04-16T13:26:37;12.57;;;6.57;;
16314;SDS011;8266;52.150;4.768;2023-04-16T13:29:05;9.45;;;6.03;;
16314;SDS011;8266;52.150;4.768;2023-04-16T13:31:32;9.80;;;6.30;;
16314;SDS011;8266;52.150;4.768;2023-04-16T13:34:00;10.32;;;6.05;;
16314;SDS011;8266;52.150;4.768;2023-04-16T13:36:27;12.65;;;6.45;;
16314;SDS011;8266;52.150;4.768;2023-04-16T13:38:56;10.15;;;6.40;;
16314;SDS011;8266;52.150;4.768;2023-04-16T13:41:23;10.80;;;6.90;;
16314;SDS011;8266;52.150;4.768;2023-04-16T13:43:50;12.10;;;6.47;;
16314;SDS011;8266;52.150;4.768;2023-04-16T13:46:19;8.40;;;6.78;;
16314;SDS011;8266;52.150;4.768;2023-04-16T13:48:46;12.57;;;7.20;;
16314;SDS011;8266;52.150;4.768;2023-04-16T13:51:13;11.68;;;7.72;;
16314;SDS011;8266;52.150;4.768;2023-04-16T13:53:40;14.38;;;8.55;;
16314;SDS011;8266;52.150;4.768;2023-04-16T13:56:07;16.13;;;8.73;;
16314;SDS011;8266;52.150;4.768;2023-04-16T13:58:35;17.55;;;9.63;;
16314;SDS011;8266;52.150;4.768;2023-04-16T14:01:02;13.60;;;7.65;;
16314;SDS011;8266;52.150;4.768;2023-04-16T14:03:31;12.75;;;7.38;;
16314;SDS011;8266;52.150;4.768;2023-04-16T14:06:00;13.60;;;7.32;;
16314;SDS011;8266;52.150;4.768;2023-04-16T14:08:27;10.90;;;6.57;;
16314;SDS011;8266;52.150;4.768;2023-04-16T14:10:54;11.85;;;6.85;;
16314;SDS011;8266;52.150;4.768;2023-04-16T14:13:21;12.40;;;7.00;;
16314;SDS011;8266;52.150;4.768;2023-04-16T14:15:49;16.60;;;8.50;;
16314;SDS011;8266;52.150;4.768;2023-04-16T14:18:16;11.25;;;7.32;;
16314;SDS011;8266;52.150;4.768;2023-04-16T14:20:44;11.13;;;6.07;;
16314;SDS011;8266;52.150;4.768;2023-04-16T14:23:11;11.20;;;7.20;;
16314;SDS011;8266;52.150;4.768;2023-04-16T14:25:38;8.93;;;5.95;;
16314;SDS011;8266;52.150;4.768;2023-04-16T14:28:05;9.30;;;6.53;;
16314;SDS011;8266;52.150;4.768;2023-04-16T14:30:32;12.23;;;6.28;;
16314;SDS011;8266;52.150;4.768;2023-04-16T14:32:59;9.90;;;6.40;;
16314;SDS011;8266;52.150;4.768;2023-04-16T14:35:27;8.32;;;6.05;;
16314;SDS011;8266;52.150;4.768;2023-04-16T14:37:55;11.32;;;5.40;;
16314;SDS011;8266;52.150;4.768;2023-04-16T14:40:22;10.55;;;5.88;;
16314;SDS011;8266;52.150;4.768;2023-04-16T14:42:49;9.15;;;5.32;;
16314;SDS011;8266;52.150;4.768;2023-04-16T14:45:16;10.52;;;6.32;;
16314;SDS011;8266;52.150;4.768;2023-04-16T14:47:43;9.45;;;7.18;;
16314;SDS011;8266;52.150;4.768;2023-04-16T14:50:12;13.18;;;7.40;;
16314;SDS011;8266;52.150;4.768;2023-04-16T14:52:42;13.73;;;7.28;;
16314;SDS011;8266;52.150;4.768;2023-04-16T14:55:10;11.30;;;7.18;;
16314;SDS011;8266;52.150;4.768;2023-04-16T14:57:37;10.95;;;6.57;;
16314;SDS011;8266;52.150;4.768;2023-04-16T15:00:06;12.68;;;6.60;;